sensor_id;sensor_type;location;lat;lon;timestamp;P1;durP1;ratioP1;P2;durP2;ratioP2
83659;SDS011;73632;50.808;3.422;2023-10-31T00:00:36;10.30;;;6.47;;
83659;SDS011;73632;50.808;3.422;2023-10-31T00:03:02;13.80;;;7.55;;
83659;SDS011;73632;50.808;3.422;2023-10-31T00:05:27;18.30;;;7.85;;
83659;SDS011;73632;50.808;3.422;2023-10-31T00:07:52;16.50;;;7.85;;
83659;SDS011;73632;50.808;3.422;2023-10-31T00:10:18;13.45;;;6.93;;
83659;SDS011;73632;50.808;3.422;2023-10-31T00:12:44;11.45;;;7.18;;
83659;SDS011;73632;50.808;3.422;2023-10-31T00:15:09;15.73;;;8.07;;
83659;SDS011;73632;50.808;3.422;2023-10-31T00:17:35;13.02;;;7.65;;
83659;SDS011;73632;50.808;3.422;2023-10-31T00:20:00;16.02;;;8.30;;
83659;SDS011;73632;50.808;3.422;2023-10-31T00:22:25;13.27;;;7.93;;
83659;SDS011;73632;50.808;3.422;2023-10-31T00:24:51;12.40;;;7.55;;
83659;SDS011;73632;50.808;3.422;2023-10-31T00:27:16;15.27;;;7.47;;
83659;SDS011;73632;50.808;3.422;2023-10-31T00:29:42;12.35;;;6.70;;
83659;SDS011;73632;50.808;3.422;2023-10-31T00:32:07;11.88;;;7.22;;
83659;SDS011;73632;50.808;3.422;2023-10-31T00:34:32;11.48;;;6.57;;
83659;SDS011;73632;50.808;3.422;2023-10-31T00:36:58;9.68;;;6.47;;
83659;SDS011;73632;50.808;3.422;2023-10-31T00:39:23;11.35;;;6.68;;
83659;SDS011;73632;50.808;3.422;2023-10-31T00:41:48;10.77;;;6.15;;
83659;SDS011;73632;50.808;3.422;2023-10-31T00:44:14;10.00;;;5.88;;
83659;SDS011;73632;50.808;3.422;2023-10-31T00:46:39;11.82;;;5.38;;
83659;SDS011;73632;50.808;3.422;2023-10-31T00:49:05;10.23;;;5.57;;
83659;SDS011;73632;50.808;3.422;2023-10-31T00:51:30;8.18;;;5.45;;
83659;SDS011;73632;50.808;3.422;2023-10-31T00:53:56;9.35;;;4.97;;
83659;SDS011;73632;50.808;3.422;2023-10-31T00:56:21;12.05;;;5.10;;
83659;SDS011;73632;50.808;3.422;2023-10-31T00:58:47;11.82;;;4.45;;
83659;SDS011;73632;50.808;3.422;2023-10-31T01:01:12;7.13;;;4.43;;
83659;SDS011;73632;50.808;3.422;2023-10-31T01:03:37;9.25;;;4.20;;
83659;SDS011;73632;50.808;3.422;2023-10-31T01:06:03;5.82;;;4.20;;
83659;SDS011;73632;50.808;3.422;2023-10-31T01:08:29;8.27;;;4.38;;
83659;SDS011;73632;50.808;3.422;2023-10-31T01:10:55;12.38;;;4.13;;
83659;SDS011;73632;50.808;3.422;2023-10-31T01:13:20;7.30;;;3.70;;
83659;SDS011;73632;50.808;3.422;2023-10-31T01:15:45;6.80;;;3.45;;
83659;SDS011;73632;50.808;3.422;2023-10-31T01:18:11;7.45;;;3.50;;
83659;SDS011;73632;50.808;3.422;2023-10-31T01:20:36;4.82;;;3.20;;
83659;SDS011;73632;50.808;3.422;2023-10-31T01:23:03;7.28;;;3.08;;
83659;SDS011;73632;50.808;3.422;2023-10-31T01:25:28;7.90;;;2.92;;
83659;SDS011;73632;50.808;3.422;2023-10-31T01:27:54;6.22;;;3.05;;
83659;SDS011;73632;50.808;3.422;2023-10-31T01:30:19;6.70;;;3.10;;
83659;SDS011;73632;50.808;3.422;2023-10-31T01:32:45;7.72;;;3.10;;
83659;SDS011;73632;50.808;3.422;2023-10-31T01:35:10;6.10;;;2.95;;
83659;SDS011;73632;50.808;3.422;2023-10-31T01:37:36;5.55;;;2.20;;
83659;SDS011;73632;50.808;3.422;2023-10-31T01:40:01;7.80;;;2.45;;
83659;SDS011;73632;50.808;3.422;2023-10-31T01:42:28;6.03;;;2.50;;
83659;SDS011;73632;50.808;3.422;2023-10-31T01:44:54;3.83;;;2.03;;
83659;SDS011;73632;50.808;3.422;2023-10-31T01:47:19;5.60;;;1.63;;
83659;SDS011;73632;50.808;3.422;2023-10-31T01:49:45;2.50;;;1.50;;
83659;SDS011;73632;50.808;3.422;2023-10-31T01:52:10;3.45;;;1.58;;
83659;SDS011;73632;50.808;3.422;2023-10-31T01:54:36;2.88;;;1.45;;
83659;SDS011;73632;50.808;3.422;2023-10-31T01:57:02;2.33;;;1.42;;
83659;SDS011;73632;50.808;3.422;2023-10-31T01:59:30;5.68;;;1.65;;
83659;SDS011;73632;50.808;3.422;2023-10-31T02:01:56;2.97;;;1.50;;
83659;SDS011;73632;50.808;3.422;2023-10-31T02:04:23;5.15;;;1.60;;
83659;SDS011;73632;50.808;3.422;2023-10-31T02:06:49;3.67;;;1.40;;
83659;SDS011;73632;50.808;3.422;2023-10-31T02:09:14;3.05;;;1.70;;
83659;SDS011;73632;50.808;3.422;2023-10-31T02:11:40;4.75;;;1.80;;
83659;SDS011;73632;50.808;3.422;2023-10-31T02:14:05;4.95;;;1.80;;
83659;SDS011;73632;50.808;3.422;2023-10-31T02:16:31;3.25;;;1.88;;
83659;SDS011;73632;50.808;3.422;2023-10-31T02:18:56;4.65;;;1.90;;
83659;SDS011;73632;50.808;3.422;2023-10-31T02:21:21;2.88;;;1.80;;
83659;SDS011;73632;50.808;3.422;2023-10-31T02:23:58;8.23;;;2.15;;
83659;SDS011;73632;50.808;3.422;2023-10-31T02:26:28;5.03;;;2.47;;
83659;SDS011;73632;50.808;3.422;2023-10-31T02:28:57;5.13;;;2.50;;
83659;SDS011;73632;50.808;3.422;2023-10-31T02:31:23;4.70;;;2.22;;
83659;SDS011;73632;50.808;3.422;2023-10-31T02:33:48;5.50;;;3.15;;
83659;SDS011;73632;50.808;3.422;2023-10-31T02:36:13;5.75;;;2.95;;
83659;SDS011;73632;50.808;3.422;2023-10-31T02:38:39;6.80;;;2.80;;
83659;SDS011;73632;50.808;3.422;2023-10-31T02:41:04;4.65;;;2.72;;
83659;SDS011;73632;50.808;3.422;2023-10-31T02:43:30;6.20;;;2.90;;
83659;SDS011;73632;50.808;3.422;2023-10-31T02:45:55;7.68;;;3.20;;
83659;SDS011;73632;50.808;3.422;2023-10-31T02:48:21;5.40;;;2.95;;
83659;SDS011;73632;50.808;3.422;2023-10-31T02:50:46;5.65;;;3.13;;
83659;SDS011;73632;50.808;3.422;2023-10-31T02:53:12;4.32;;;3.10;;
83659;SDS011;73632;50.808;3.422;2023-10-31T02:55:37;6.85;;;3.17;;
83659;SDS011;73632;50.808;3.422;2023-10-31T02:58:02;5.85;;;3.28;;
83659;SDS011;73632;50.808;3.422;2023-10-31T03:00:28;7.60;;;3.30;;
83659;SDS011;73632;50.808;3.422;2023-10-31T03:02:53;5.57;;;3.50;;
83659;SDS011;73632;50.808;3.422;2023-10-31T03:05:19;7.60;;;3.20;;
83659;SDS011;73632;50.808;3.422;2023-10-31T03:07:44;5.72;;;3.50;;
83659;SDS011;73632;50.808;3.422;2023-10-31T03:10:10;6.43;;;3.35;;
83659;SDS011;73632;50.808;3.422;2023-10-31T03:12:36;6.55;;;3.65;;
83659;SDS011;73632;50.808;3.422;2023-10-31T03:15:01;8.80;;;3.20;;
83659;SDS011;73632;50.808;3.422;2023-10-31T03:17:29;8.48;;;3.70;;
83659;SDS011;73632;50.808;3.422;2023-10-31T03:19:54;6.20;;;3.72;;
83659;SDS011;73632;50.808;3.422;2023-10-31T03:22:20;10.35;;;3.75;;
83659;SDS011;73632;50.808;3.422;2023-10-31T03:24:45;5.72;;;3.78;;
83659;SDS011;73632;50.808;3.422;2023-10-31T03:27:11;7.50;;;4.22;;
83659;SDS011;73632;50.808;3.422;2023-10-31T03:29:36;7.85;;;4.10;;
83659;SDS011;73632;50.808;3.422;2023-10-31T03:32:01;6.65;;;4.20;;
83659;SDS011;73632;50.808;3.422;2023-10-31T03:34:27;8.65;;;4.70;;
83659;SDS011;73632;50.808;3.422;2023-10-31T03:36:52;10.95;;;4.68;;
83659;SDS011;73632;50.808;3.422;2023-10-31T03:39:18;7.43;;;4.57;;
83659;SDS011;73632;50.808;3.422;2023-10-31T03:41:43;9.45;;;4.68;;
83659;SDS011;73632;50.808;3.422;2023-10-31T03:44:09;9.57;;;5.35;;
83659;SDS011;73632;50.808;3.422;2023-10-31T03:46:34;9.73;;;5.30;;
83659;SDS011;73632;50.808;3.422;2023-10-31T03:49:00;8.50;;;5.07;;
83659;SDS011;73632;50.808;3.422;2023-10-31T03:51:25;7.30;;;4.85;;
83659;SDS011;73632;50.808;3.422;2023-10-31T03:53:51;6.85;;;4.43;;
83659;SDS011;73632;50.808;3.422;2023-10-31T03:56:16;6.43;;;4.53;;
83659;SDS011;73632;50.808;3.422;2023-10-31T03:58:42;7.45;;;5.05;;
83659;SDS011;73632;50.808;3.422;2023-10-31T04:01:08;7.40;;;4.70;;
83659;SDS011;73632;50.808;3.422;2023-10-31T04:03:34;8.27;;;5.28;;
83659;SDS011;73632;50.808;3.422;2023-10-31T04:05:59;8.02;;;5.18;;
83659;SDS011;73632;50.808;3.422;2023-10-31T04:08:24;9.05;;;5.03;;
83659;SDS011;73632;50.808;3.422;2023-10-31T04:10:50;7.38;;;4.80;;
83659;SDS011;73632;50.808;3.422;2023-10-31T04:13:15;7.57;;;5.25;;
83659;SDS011;73632;50.808;3.422;2023-10-31T04:15:41;14.05;;;6.20;;
83659;SDS011;73632;50.808;3.422;2023-10-31T04:18:06;19.30;;;5.97;;
83659;SDS011;73632;50.808;3.422;2023-10-31T04:20:31;10.48;;;5.63;;
83659;SDS011;73632;50.808;3.422;2023-10-31T04:22:57;7.22;;;5.18;;
83659;SDS011;73632;50.808;3.422;2023-10-31T04:25:22;9.77;;;5.75;;
83659;SDS011;73632;50.808;3.422;2023-10-31T04:27:48;8.32;;;5.50;;
83659;SDS011;73632;50.808;3.422;2023-10-31T04:30:14;7.97;;;5.22;;
83659;SDS011;73632;50.808;3.422;2023-10-31T04:32:39;11.02;;;6.20;;
83659;SDS011;73632;50.808;3.422;2023-10-31T04:35:05;9.00;;;6.20;;
83659;SDS011;73632;50.808;3.422;2023-10-31T04:37:31;11.63;;;6.00;;
83659;SDS011;73632;50.808;3.422;2023-10-31T04:39:56;11.85;;;7.32;;
83659;SDS011;73632;50.808;3.422;2023-10-31T04:42:21;12.55;;;6.90;;
83659;SDS011;73632;50.808;3.422;2023-10-31T04:44:47;10.35;;;6.95;;
83659;SDS011;73632;50.808;3.422;2023-10-31T04:47:13;14.55;;;8.05;;
83659;SDS011;73632;50.808;3.422;2023-10-31T04:49:38;13.57;;;7.53;;
83659;SDS011;73632;50.808;3.422;2023-10-31T04:52:04;18.48;;;8.30;;
83659;SDS011;73632;50.808;3.422;2023-10-31T04:54:29;11.65;;;7.97;;
83659;SDS011;73632;50.808;3.422;2023-10-31T04:56:55;15.40;;;8.27;;
83659;SDS011;73632;50.808;3.422;2023-10-31T04:59:20;16.45;;;8.20;;
83659;SDS011;73632;50.808;3.422;2023-10-31T05:01:49;14.85;;;8.07;;
83659;SDS011;73632;50.808;3.422;2023-10-31T05:04:16;14.32;;;8.35;;
83659;SDS011;73632;50.808;3.422;2023-10-31T05:06:42;18.65;;;8.88;;
83659;SDS011;73632;50.808;3.422;2023-10-31T05:09:07;17.83;;;8.73;;
83659;SDS011;73632;50.808;3.422;2023-10-31T05:11:33;16.52;;;8.68;;
83659;SDS011;73632;50.808;3.422;2023-10-31T05:13:58;15.35;;;9.15;;
83659;SDS011;73632;50.808;3.422;2023-10-31T05:16:24;14.75;;;8.55;;
83659;SDS011;73632;50.808;3.422;2023-10-31T05:18:50;14.73;;;7.50;;
83659;SDS011;73632;50.808;3.422;2023-10-31T05:21:18;13.73;;;8.07;;
83659;SDS011;73632;50.808;3.422;2023-10-31T05:23:48;11.48;;;7.88;;
83659;SDS011;73632;50.808;3.422;2023-10-31T05:26:14;13.38;;;8.80;;
83659;SDS011;73632;50.808;3.422;2023-10-31T05:28:39;17.23;;;8.63;;
83659;SDS011;73632;50.808;3.422;2023-10-31T05:31:05;14.65;;;9.20;;
83659;SDS011;73632;50.808;3.422;2023-10-31T05:33:30;14.35;;;9.15;;
83659;SDS011;73632;50.808;3.422;2023-10-31T05:35:55;15.50;;;9.35;;
83659;SDS011;73632;50.808;3.422;2023-10-31T05:38:21;16.63;;;9.45;;
83659;SDS011;73632;50.808;3.422;2023-10-31T05:40:46;13.98;;;8.98;;
83659;SDS011;73632;50.808;3.422;2023-10-31T05:43:12;14.23;;;9.52;;
83659;SDS011;73632;50.808;3.422;2023-10-31T05:45:37;20.40;;;9.13;;
83659;SDS011;73632;50.808;3.422;2023-10-31T05:48:02;16.90;;;8.90;;
83659;SDS011;73632;50.808;3.422;2023-10-31T05:50:28;11.60;;;8.10;;
83659;SDS011;73632;50.808;3.422;2023-10-31T05:52:54;11.40;;;8.15;;
83659;SDS011;73632;50.808;3.422;2023-10-31T05:55:19;11.30;;;8.02;;
83659;SDS011;73632;50.808;3.422;2023-10-31T05:57:45;11.73;;;7.53;;
83659;SDS011;73632;50.808;3.422;2023-10-31T06:00:10;18.48;;;9.93;;
83659;SDS011;73632;50.808;3.422;2023-10-31T06:02:36;17.10;;;9.20;;
83659;SDS011;73632;50.808;3.422;2023-10-31T06:05:01;15.60;;;8.68;;
83659;SDS011;73632;50.808;3.422;2023-10-31T06:07:27;26.42;;;9.07;;
83659;SDS011;73632;50.808;3.422;2023-10-31T06:09:52;15.18;;;9.32;;
83659;SDS011;73632;50.808;3.422;2023-10-31T06:12:17;12.75;;;8.40;;
83659;SDS011;73632;50.808;3.422;2023-10-31T06:14:43;12.82;;;8.38;;
83659;SDS011;73632;50.808;3.422;2023-10-31T06:17:08;14.45;;;8.45;;
83659;SDS011;73632;50.808;3.422;2023-10-31T06:19:34;13.80;;;8.65;;
83659;SDS011;73632;50.808;3.422;2023-10-31T06:22:01;15.90;;;8.88;;
83659;SDS011;73632;50.808;3.422;2023-10-31T06:24:26;16.20;;;8.60;;
83659;SDS011;73632;50.808;3.422;2023-10-31T06:26:52;12.90;;;8.43;;
83659;SDS011;73632;50.808;3.422;2023-10-31T06:29:17;13.88;;;8.95;;
83659;SDS011;73632;50.808;3.422;2023-10-31T06:31:43;20.17;;;9.23;;
83659;SDS011;73632;50.808;3.422;2023-10-31T06:34:08;11.00;;;8.52;;
83659;SDS011;73632;50.808;3.422;2023-10-31T06:36:34;18.30;;;9.68;;
83659;SDS011;73632;50.808;3.422;2023-10-31T06:38:59;17.20;;;9.10;;
83659;SDS011;73632;50.808;3.422;2023-10-31T06:41:24;17.05;;;10.68;;
83659;SDS011;73632;50.808;3.422;2023-10-31T06:43:50;14.85;;;9.98;;
83659;SDS011;73632;50.808;3.422;2023-10-31T06:46:15;14.73;;;9.93;;
83659;SDS011;73632;50.808;3.422;2023-10-31T06:48:41;17.67;;;10.05;;
83659;SDS011;73632;50.808;3.422;2023-10-31T06:51:06;17.15;;;9.20;;
83659;SDS011;73632;50.808;3.422;2023-10-31T06:53:32;12.10;;;8.65;;
83659;SDS011;73632;50.808;3.422;2023-10-31T06:55:57;15.27;;;8.65;;
83659;SDS011;73632;50.808;3.422;2023-10-31T06:58:23;12.48;;;8.55;;
83659;SDS011;73632;50.808;3.422;2023-10-31T07:00:48;14.02;;;8.85;;
83659;SDS011;73632;50.808;3.422;2023-10-31T07:03:13;16.58;;;8.93;;
83659;SDS011;73632;50.808;3.422;2023-10-31T07:05:40;11.65;;;9.02;;
83659;SDS011;73632;50.808;3.422;2023-10-31T07:08:06;16.40;;;9.25;;
83659;SDS011;73632;50.808;3.422;2023-10-31T07:10:32;14.10;;;8.52;;
83659;SDS011;73632;50.808;3.422;2023-10-31T07:12:58;13.07;;;9.00;;
83659;SDS011;73632;50.808;3.422;2023-10-31T07:15:24;13.52;;;8.00;;
83659;SDS011;73632;50.808;3.422;2023-10-31T07:17:50;15.63;;;8.27;;
83659;SDS011;73632;50.808;3.422;2023-10-31T07:20:15;9.25;;;7.45;;
83659;SDS011;73632;50.808;3.422;2023-10-31T07:22:40;11.13;;;7.53;;
83659;SDS011;73632;50.808;3.422;2023-10-31T07:25:06;13.90;;;7.63;;
83659;SDS011;73632;50.808;3.422;2023-10-31T07:27:32;9.88;;;7.20;;
83659;SDS011;73632;50.808;3.422;2023-10-31T07:29:58;11.10;;;7.30;;
83659;SDS011;73632;50.808;3.422;2023-10-31T07:32:23;10.05;;;7.00;;
83659;SDS011;73632;50.808;3.422;2023-10-31T07:34:49;12.32;;;6.88;;
83659;SDS011;73632;50.808;3.422;2023-10-31T07:37:14;13.32;;;6.82;;
83659;SDS011;73632;50.808;3.422;2023-10-31T07:39:39;10.18;;;6.47;;
83659;SDS011;73632;50.808;3.422;2023-10-31T07:42:05;14.32;;;6.85;;
83659;SDS011;73632;50.808;3.422;2023-10-31T07:44:31;11.82;;;6.50;;
83659;SDS011;73632;50.808;3.422;2023-10-31T07:46:56;14.48;;;6.70;;
83659;SDS011;73632;50.808;3.422;2023-10-31T07:49:22;18.27;;;6.38;;
83659;SDS011;73632;50.808;3.422;2023-10-31T07:51:47;11.68;;;6.22;;
83659;SDS011;73632;50.808;3.422;2023-10-31T07:54:13;10.40;;;6.10;;
83659;SDS011;73632;50.808;3.422;2023-10-31T07:56:39;12.15;;;6.15;;
83659;SDS011;73632;50.808;3.422;2023-10-31T07:59:05;10.90;;;6.15;;
83659;SDS011;73632;50.808;3.422;2023-10-31T08:01:31;9.90;;;6.25;;
83659;SDS011;73632;50.808;3.422;2023-10-31T08:03:56;10.40;;;6.00;;
83659;SDS011;73632;50.808;3.422;2023-10-31T08:06:21;8.80;;;6.32;;
83659;SDS011;73632;50.808;3.422;2023-10-31T08:08:47;17.67;;;6.95;;
83659;SDS011;73632;50.808;3.422;2023-10-31T08:11:12;16.92;;;6.15;;
83659;SDS011;73632;50.808;3.422;2023-10-31T08:13:38;20.88;;;6.50;;
83659;SDS011;73632;50.808;3.422;2023-10-31T08:16:04;21.67;;;7.53;;
83659;SDS011;73632;50.808;3.422;2023-10-31T08:18:31;14.68;;;7.50;;
83659;SDS011;73632;50.808;3.422;2023-10-31T08:20:56;21.10;;;11.00;;
83659;SDS011;73632;50.808;3.422;2023-10-31T08:23:22;21.98;;;11.85;;
83659;SDS011;73632;50.808;3.422;2023-10-31T08:25:47;22.38;;;11.25;;
83659;SDS011;73632;50.808;3.422;2023-10-31T08:28:13;18.25;;;10.20;;
83659;SDS011;73632;50.808;3.422;2023-10-31T08:30:38;20.83;;;10.38;;
83659;SDS011;73632;50.808;3.422;2023-10-31T08:33:04;15.02;;;8.80;;
83659;SDS011;73632;50.808;3.422;2023-10-31T08:35:29;20.45;;;10.68;;
83659;SDS011;73632;50.808;3.422;2023-10-31T08:37:55;19.50;;;10.93;;
83659;SDS011;73632;50.808;3.422;2023-10-31T08:40:20;24.48;;;9.38;;
83659;SDS011;73632;50.808;3.422;2023-10-31T08:42:46;13.23;;;8.10;;
83659;SDS011;73632;50.808;3.422;2023-10-31T08:45:11;12.95;;;8.65;;
83659;SDS011;73632;50.808;3.422;2023-10-31T08:47:37;17.50;;;8.68;;
83659;SDS011;73632;50.808;3.422;2023-10-31T08:50:02;18.88;;;8.55;;
83659;SDS011;73632;50.808;3.422;2023-10-31T08:52:28;22.38;;;8.60;;
83659;SDS011;73632;50.808;3.422;2023-10-31T08:54:53;18.63;;;8.40;;
83659;SDS011;73632;50.808;3.422;2023-10-31T08:57:18;15.75;;;8.20;;
83659;SDS011;73632;50.808;3.422;2023-10-31T08:59:44;17.13;;;8.75;;
83659;SDS011;73632;50.808;3.422;2023-10-31T09:02:09;23.42;;;9.18;;
83659;SDS011;73632;50.808;3.422;2023-10-31T09:04:35;16.73;;;9.40;;
83659;SDS011;73632;50.808;3.422;2023-10-31T09:07:00;21.30;;;9.95;;
83659;SDS011;73632;50.808;3.422;2023-10-31T09:09:26;15.50;;;9.27;;
83659;SDS011;73632;50.808;3.422;2023-10-31T09:11:51;19.40;;;9.65;;
83659;SDS011;73632;50.808;3.422;2023-10-31T09:14:17;16.17;;;8.48;;
83659;SDS011;73632;50.808;3.422;2023-10-31T09:16:42;16.30;;;9.48;;
83659;SDS011;73632;50.808;3.422;2023-10-31T09:19:08;17.00;;;9.02;;
83659;SDS011;73632;50.808;3.422;2023-10-31T09:21:34;17.60;;;9.52;;
83659;SDS011;73632;50.808;3.422;2023-10-31T09:23:59;19.10;;;9.63;;
83659;SDS011;73632;50.808;3.422;2023-10-31T09:26:24;17.08;;;10.13;;
83659;SDS011;73632;50.808;3.422;2023-10-31T09:28:50;23.80;;;10.93;;
83659;SDS011;73632;50.808;3.422;2023-10-31T09:31:18;18.30;;;9.32;;
83659;SDS011;73632;50.808;3.422;2023-10-31T09:33:47;21.67;;;8.60;;
83659;SDS011;73632;50.808;3.422;2023-10-31T09:36:13;15.50;;;9.18;;
83659;SDS011;73632;50.808;3.422;2023-10-31T09:38:39;16.00;;;9.15;;
83659;SDS011;73632;50.808;3.422;2023-10-31T09:41:05;17.02;;;9.68;;
83659;SDS011;73632;50.808;3.422;2023-10-31T09:43:31;22.42;;;12.07;;
83659;SDS011;73632;50.808;3.422;2023-10-31T09:45:56;29.25;;;14.93;;
83659;SDS011;73632;50.808;3.422;2023-10-31T09:48:22;26.30;;;14.90;;
83659;SDS011;73632;50.808;3.422;2023-10-31T09:50:48;26.35;;;15.55;;
83659;SDS011;73632;50.808;3.422;2023-10-31T09:53:14;22.73;;;14.35;;
83659;SDS011;73632;50.808;3.422;2023-10-31T09:55:43;28.55;;;14.88;;
83659;SDS011;73632;50.808;3.422;2023-10-31T09:58:10;21.90;;;12.65;;
83659;SDS011;73632;50.808;3.422;2023-10-31T10:00:36;28.95;;;13.90;;
83659;SDS011;73632;50.808;3.422;2023-10-31T10:03:03;24.02;;;12.32;;
83659;SDS011;73632;50.808;3.422;2023-10-31T10:05:30;25.58;;;12.98;;
83659;SDS011;73632;50.808;3.422;2023-10-31T10:07:57;24.75;;;12.63;;
83659;SDS011;73632;50.808;3.422;2023-10-31T10:10:23;23.77;;;13.60;;
83659;SDS011;73632;50.808;3.422;2023-10-31T10:12:51;30.00;;;14.52;;
83659;SDS011;73632;50.808;3.422;2023-10-31T10:15:16;30.00;;;15.95;;
83659;SDS011;73632;50.808;3.422;2023-10-31T10:17:48;28.83;;;14.80;;
83659;SDS011;73632;50.808;3.422;2023-10-31T10:20:14;22.85;;;13.15;;
83659;SDS011;73632;50.808;3.422;2023-10-31T10:22:40;18.55;;;10.25;;
83659;SDS011;73632;50.808;3.422;2023-10-31T10:25:07;18.33;;;10.07;;
83659;SDS011;73632;50.808;3.422;2023-10-31T10:27:33;23.88;;;10.30;;
83659;SDS011;73632;50.808;3.422;2023-10-31T10:30:00;18.73;;;8.10;;
83659;SDS011;73632;50.808;3.422;2023-10-31T10:32:26;14.65;;;7.40;;
83659;SDS011;73632;50.808;3.422;2023-10-31T10:34:51;14.77;;;7.30;;
83659;SDS011;73632;50.808;3.422;2023-10-31T10:37:16;9.95;;;6.35;;
83659;SDS011;73632;50.808;3.422;2023-10-31T10:39:44;16.05;;;7.25;;
83659;SDS011;73632;50.808;3.422;2023-10-31T10:42:12;16.77;;;6.78;;
83659;SDS011;73632;50.808;3.422;2023-10-31T10:44:43;14.90;;;6.30;;
83659;SDS011;73632;50.808;3.422;2023-10-31T10:47:09;15.93;;;7.13;;
83659;SDS011;73632;50.808;3.422;2023-10-31T10:49:37;15.57;;;7.47;;
83659;SDS011;73632;50.808;3.422;2023-10-31T10:54:44;19.40;;;8.13;;
83659;SDS011;73632;50.808;3.422;2023-10-31T10:57:19;15.32;;;6.97;;
83659;SDS011;73632;50.808;3.422;2023-10-31T10:59:51;10.80;;;6.00;;
83659;SDS011;73632;50.808;3.422;2023-10-31T11:02:21;11.02;;;5.30;;
83659;SDS011;73632;50.808;3.422;2023-10-31T11:04:51;12.88;;;6.22;;
83659;SDS011;73632;50.808;3.422;2023-10-31T11:07:17;16.38;;;5.95;;
83659;SDS011;73632;50.808;3.422;2023-10-31T11:09:43;13.85;;;5.55;;
83659;SDS011;73632;50.808;3.422;2023-10-31T11:12:11;15.25;;;5.85;;
83659;SDS011;73632;50.808;3.422;2023-10-31T11:14:38;13.82;;;5.97;;
83659;SDS011;73632;50.808;3.422;2023-10-31T11:17:06;13.45;;;6.05;;
83659;SDS011;73632;50.808;3.422;2023-10-31T11:19:39;11.40;;;6.35;;
83659;SDS011;73632;50.808;3.422;2023-10-31T11:22:05;13.57;;;6.78;;
83659;SDS011;73632;50.808;3.422;2023-10-31T11:24:32;19.13;;;7.90;;
83659;SDS011;73632;50.808;3.422;2023-10-31T11:26:59;12.38;;;6.80;;
83659;SDS011;73632;50.808;3.422;2023-10-31T11:29:26;19.23;;;8.18;;
83659;SDS011;73632;50.808;3.422;2023-10-31T11:31:55;11.40;;;6.28;;
83659;SDS011;73632;50.808;3.422;2023-10-31T11:34:21;11.20;;;6.25;;
83659;SDS011;73632;50.808;3.422;2023-10-31T11:36:46;8.95;;;5.05;;
83659;SDS011;73632;50.808;3.422;2023-10-31T11:39:18;8.52;;;4.68;;
83659;SDS011;73632;50.808;3.422;2023-10-31T11:41:49;8.32;;;4.00;;
83659;SDS011;73632;50.808;3.422;2023-10-31T11:44:15;7.43;;;3.80;;
83659;SDS011;73632;50.808;3.422;2023-10-31T11:46:42;6.10;;;3.70;;
83659;SDS011;73632;50.808;3.422;2023-10-31T11:49:08;11.18;;;4.30;;
83659;SDS011;73632;50.808;3.422;2023-10-31T11:51:33;8.82;;;3.50;;
83659;SDS011;73632;50.808;3.422;2023-10-31T11:54:01;8.10;;;3.20;;
83659;SDS011;73632;50.808;3.422;2023-10-31T11:56:27;6.65;;;4.07;;
83659;SDS011;73632;50.808;3.422;2023-10-31T11:58:56;4.85;;;3.65;;
83659;SDS011;73632;50.808;3.422;2023-10-31T12:01:23;6.47;;;3.67;;
83659;SDS011;73632;50.808;3.422;2023-10-31T12:03:48;4.95;;;3.30;;
83659;SDS011;73632;50.808;3.422;2023-10-31T12:06:14;5.45;;;3.40;;
83659;SDS011;73632;50.808;3.422;2023-10-31T12:08:41;6.63;;;3.15;;
83659;SDS011;73632;50.808;3.422;2023-10-31T12:13:40;7.38;;;3.83;;
83659;SDS011;73632;50.808;3.422;2023-10-31T12:16:33;7.03;;;4.22;;
83659;SDS011;73632;50.808;3.422;2023-10-31T12:19:06;8.52;;;4.55;;
83659;SDS011;73632;50.808;3.422;2023-10-31T12:24:05;10.63;;;4.65;;
83659;SDS011;73632;50.808;3.422;2023-10-31T12:26:32;12.15;;;4.45;;
83659;SDS011;73632;50.808;3.422;2023-10-31T12:31:47;10.60;;;4.30;;
83659;SDS011;73632;50.808;3.422;2023-10-31T12:34:15;9.02;;;4.15;;
83659;SDS011;73632;50.808;3.422;2023-10-31T12:36:41;9.57;;;3.63;;
83659;SDS011;73632;50.808;3.422;2023-10-31T12:39:08;6.80;;;3.45;;
83659;SDS011;73632;50.808;3.422;2023-10-31T12:41:35;14.35;;;4.30;;
83659;SDS011;73632;50.808;3.422;2023-10-31T12:44:02;8.75;;;3.38;;
83659;SDS011;73632;50.808;3.422;2023-10-31T12:46:30;10.80;;;4.05;;
83659;SDS011;73632;50.808;3.422;2023-10-31T12:48:57;9.02;;;3.20;;
83659;SDS011;73632;50.808;3.422;2023-10-31T12:51:23;8.63;;;3.35;;
83659;SDS011;73632;50.808;3.422;2023-10-31T12:53:52;11.50;;;2.97;;
83659;SDS011;73632;50.808;3.422;2023-10-31T12:59:09;6.32;;;2.97;;
83659;SDS011;73632;50.808;3.422;2023-10-31T13:01:47;13.57;;;3.00;;
83659;SDS011;73632;50.808;3.422;2023-10-31T13:04:12;8.00;;;2.65;;
83659;SDS011;73632;50.808;3.422;2023-10-31T13:06:37;5.68;;;2.63;;
83659;SDS011;73632;50.808;3.422;2023-10-31T13:09:03;8.95;;;2.38;;
83659;SDS011;73632;50.808;3.422;2023-10-31T13:11:31;4.40;;;2.20;;
83659;SDS011;73632;50.808;3.422;2023-10-31T13:13:59;5.85;;;2.17;;
83659;SDS011;73632;50.808;3.422;2023-10-31T13:16:24;7.20;;;2.45;;
83659;SDS011;73632;50.808;3.422;2023-10-31T13:18:53;8.10;;;2.35;;
83659;SDS011;73632;50.808;3.422;2023-10-31T13:21:21;11.18;;;3.47;;
83659;SDS011;73632;50.808;3.422;2023-10-31T13:23:47;9.88;;;2.80;;
83659;SDS011;73632;50.808;3.422;2023-10-31T13:26:13;7.70;;;2.45;;
83659;SDS011;73632;50.808;3.422;2023-10-31T13:28:39;11.63;;;3.28;;
83659;SDS011;73632;50.808;3.422;2023-10-31T13:31:05;6.97;;;2.80;;
83659;SDS011;73632;50.808;3.422;2023-10-31T13:33:31;14.35;;;3.10;;
83659;SDS011;73632;50.808;3.422;2023-10-31T13:35:58;11.82;;;2.92;;
83659;SDS011;73632;50.808;3.422;2023-10-31T13:38:23;13.57;;;3.17;;
83659;SDS011;73632;50.808;3.422;2023-10-31T13:40:49;11.18;;;3.47;;
83659;SDS011;73632;50.808;3.422;2023-10-31T13:43:15;7.78;;;3.10;;
83659;SDS011;73632;50.808;3.422;2023-10-31T13:45:40;10.20;;;3.25;;
83659;SDS011;73632;50.808;3.422;2023-10-31T13:48:06;11.45;;;3.38;;
83659;SDS011;73632;50.808;3.422;2023-10-31T13:50:31;13.77;;;3.05;;
83659;SDS011;73632;50.808;3.422;2023-10-31T13:52:57;9.45;;;2.67;;
83659;SDS011;73632;50.808;3.422;2023-10-31T13:55:22;14.93;;;3.38;;
83659;SDS011;73632;50.808;3.422;2023-10-31T13:57:50;18.05;;;2.97;;
83659;SDS011;73632;50.808;3.422;2023-10-31T14:00:16;7.35;;;2.90;;
83659;SDS011;73632;50.808;3.422;2023-10-31T14:02:41;8.57;;;3.08;;
83659;SDS011;73632;50.808;3.422;2023-10-31T14:05:07;11.30;;;3.55;;
83659;SDS011;73632;50.808;3.422;2023-10-31T14:07:32;10.88;;;3.10;;
83659;SDS011;73632;50.808;3.422;2023-10-31T14:09:58;10.38;;;3.22;;
83659;SDS011;73632;50.808;3.422;2023-10-31T14:12:24;8.80;;;2.92;;
83659;SDS011;73632;50.808;3.422;2023-10-31T14:14:49;9.50;;;2.85;;
83659;SDS011;73632;50.808;3.422;2023-10-31T14:17:16;11.70;;;3.80;;
83659;SDS011;73632;50.808;3.422;2023-10-31T14:19:42;7.65;;;3.20;;
83659;SDS011;73632;50.808;3.422;2023-10-31T14:22:07;10.90;;;3.10;;
83659;SDS011;73632;50.808;3.422;2023-10-31T14:24:33;13.13;;;3.42;;
83659;SDS011;73632;50.808;3.422;2023-10-31T14:26:59;9.82;;;3.03;;
83659;SDS011;73632;50.808;3.422;2023-10-31T14:29:25;9.82;;;2.90;;
83659;SDS011;73632;50.808;3.422;2023-10-31T14:31:51;12.25;;;3.13;;
83659;SDS011;73632;50.808;3.422;2023-10-31T14:34:16;22.30;;;3.50;;
83659;SDS011;73632;50.808;3.422;2023-10-31T14:36:41;14.80;;;3.08;;
83659;SDS011;73632;50.808;3.422;2023-10-31T14:39:08;10.60;;;2.95;;
83659;SDS011;73632;50.808;3.422;2023-10-31T14:41:34;12.23;;;2.83;;
83659;SDS011;73632;50.808;3.422;2023-10-31T14:44:00;7.70;;;2.42;;